Time;durP1;ratioP1;P1;durP2;ratioP2;P2;SDS_P1;SDS_P2;PMS_P1;PMS_P2;Temp;Humidity;BMP_temperature;BMP_pressure;BME280_temperature;BME280_humidity;BME280_pressure;Samples;Min_cycle;Max_cycle;Signal;HPM_P1;HPM_P2
2024/01/18 04:38:33;;;;;;;;;;;5.00;99.90;;;;;;5596206;23;19947;-75
2024/01/18 04:40:59;;;;;;;;;;;4.90;99.90;;;;;;4978296;28;19933;-74
2024/01/18 04:43:26;;;;;;;;;;;4.80;99.90;;;;;;4978320;28;19937;-74
2024/01/18 04:45:51;;;;;;;;;;;4.70;99.90;;;;;;4978295;28;19926;-74
2024/01/18 04:48:18;;;;;;;;;;;4.80;99.90;;;;;;4978186;28;19929;-74
2024/01/18 04:50:45;;;;;;;;;;;4.80;99.90;;;;;;4978095;28;19933;-74
2024/01/18 04:53:11;;;;;;;;;;;4.90;99.90;;;;;;5000331;23;19926;-75
2024/01/18 04:55:39;;;;;;;;;;;4.80;99.90;;;;;;4978307;28;19926;-74
2024/01/18 04:58:15;;;;;;;;;;;4.80;99.90;;;;;;4977936;28;20303;-74
2024/01/18 05:00:41;;;;;;;;;;;4.80;99.90;;;;;;4978534;28;19949;-74
2024/01/18 05:03:08;;;;;;;;;;;4.80;99.90;;;;;;4980456;28;19933;-74
2024/01/18 05:05:35;;;;;;;;;;;4.80;99.90;;;;;;4980984;28;19933;-74
2024/01/18 05:08:01;;;;;;;;;;;4.80;99.90;;;;;;4980724;28;19926;-74
2024/01/18 05:10:28;;;;;;;;;;;4.90;99.90;;;;;;4980450;28;20336;-74
2024/01/18 05:12:57;;;;;;;;;;;4.80;99.90;;;;;;4980330;28;19933;-74
2024/01/18 05:15:25;;;;;;;;;;;4.90;99.90;;;;;;4979818;28;20387;-74
2024/01/18 05:17:54;;;;;;;;;;;5.00;99.90;;;;;;4979644;28;19926;-74
2024/01/18 05:20:20;;;;;;;;;;;5.10;99.90;;;;;;4978940;28;20418;-73
2024/01/18 05:22:47;;;;;;;;;;;5.10;99.90;;;;;;4980041;28;19933;-73
2024/01/18 05:25:14;;;;;;;;;;;5.00;99.90;;;;;;4979995;28;19933;-73
2024/01/18 05:27:41;;;;;;;;;;;5.00;99.90;;;;;;4980946;28;19930;-74
2024/01/18 05:30:10;;;;;;;;;;;4.90;99.90;;;;;;4980872;28;19926;-74
2024/01/18 05:32:36;;;;;;;;;;;4.90;99.90;;;;;;4980584;28;19933;-74
2024/01/18 05:35:04;;;;;;;;;;;4.80;99.90;;;;;;4979869;28;20003;-72
2024/01/18 05:37:31;;;;;;;;;;;4.80;99.90;;;;;;4979944;28;19969;-73
2024/01/18 05:39:58;;;;;;;;;;;4.70;99.90;;;;;;4979955;28;19926;-73
2024/01/18 05:42:26;;;;;;;;;;;4.60;99.90;;;;;;4979558;28;19933;-72
2024/01/18 05:44:53;;;;;;;;;;;4.60;99.90;;;;;;4979946;28;19933;-72
2024/01/18 05:47:21;;;;;;;;;;;4.60;99.90;;;;;;4979434;28;19926;-73
2024/01/18 05:49:48;;;;;;;;;;;4.60;99.90;;;;;;4979789;28;19926;-74
2024/01/18 05:52:15;;;;;;;;;;;4.60;99.90;;;;;;4980799;28;19926;-72
2024/01/18 05:54:41;;;;;;;;;;;4.60;99.90;;;;;;4981230;28;19930;-74
2024/01/18 05:57:08;;;;;;;;;;;4.70;99.90;;;;;;4980433;28;20020;-75
2024/01/18 05:59:35;;;;;;;;;;;4.70;99.90;;;;;;4980371;28;20028;-74
2024/01/18 06:02:03;;;;;;;;;;;4.80;99.90;;;;;;4980664;28;19933;-74
2024/01/18 06:04:31;;;;;;;;;;;4.80;99.90;;;;;;4979923;28;19930;-74
2024/01/18 06:06:58;;;;;;;;;;;4.80;99.90;;;;;;4979716;28;19934;-74
2024/01/18 06:09:24;;;;;;;;;;;4.70;99.90;;;;;;4978832;28;19926;-73
2024/01/18 06:11:51;;;;;;;;;;;4.70;99.90;;;;;;4979467;28;20379;-74
2024/01/18 06:14:18;;;;;;;;;;;4.60;99.90;;;;;;4977458;28;19926;-72
2024/01/18 06:16:46;;;;;;;;;;;4.60;99.90;;;;;;4979591;28;19932;-73
2024/01/18 06:19:12;;;;;;;;;;;4.70;99.90;;;;;;4980522;28;19965;-73
2024/01/18 06:21:41;;;;;;;;;;;4.70;99.90;;;;;;4979892;28;19930;-74
2024/01/18 06:24:09;;;;;;;;;;;4.80;99.90;;;;;;4980402;28;19926;-72
2024/01/18 06:26:35;;;;;;;;;;;4.90;99.90;;;;;;4979584;28;19926;-73
2024/01/18 06:29:04;;;;;;;;;;;5.00;99.90;;;;;;4979619;28;19926;-74
2024/01/18 06:31:31;;;;;;;;;;;5.20;99.90;;;;;;4978898;28;19969;-73
2024/01/18 06:33:57;;;;;;;;;;;5.30;99.90;;;;;;4980085;28;19966;-73
2024/01/18 06:36:25;;;;;;;;;;;5.40;99.90;;;;;;4979974;28;20021;-74
2024/01/18 11:39:11;;;;;;;;;;;8.00;99.90;;;;;;5021666;23;19973;-76
2024/01/18 11:41:37;;;;;;;;;;;8.00;99.90;;;;;;4975330;28;19973;-75
2024/01/18 11:44:10;;;;;;;;;;;7.90;99.90;;;;;;4975192;28;19926;-75
2024/01/18 11:46:39;;;;;;;;;;;7.90;99.90;;;;;;4975406;28;19927;-75
2024/01/18 11:49:06;;;;;;;;;;;7.90;99.90;;;;;;4975097;28;19926;-75
2024/01/18 11:51:33;;;;;;;;;;;7.80;99.90;;;;;;4975662;28;19949;-74
2024/01/18 11:53:59;;;;;;;;;;;7.90;99.90;;;;;;4974994;28;19926;-72
2024/01/18 11:56:28;;;;;;;;;;;7.80;99.90;;;;;;4975087;28;19926;-72
2024/01/18 11:58:56;;;;;;;;;;;7.80;99.90;;;;;;4974987;28;20347;-72
2024/01/18 12:01:23;;;;;;;;;;;7.80;99.90;;;;;;4974931;28;19926;-72
2024/01/18 12:03:49;;;;;;;;;;;7.80;99.90;;;;;;4974977;28;19926;-74
2024/01/18 12:06:16;;;;;;;;;;;7.80;99.90;;;;;;4974925;28;19930;-73
2024/01/18 12:08:44;;;;;;;;;;;7.80;99.90;;;;;;4974846;28;19933;-72
2024/01/18 12:11:11;;;;;;;;;;;7.80;99.90;;;;;;4974841;28;19926;-72
2024/01/18 12:13:39;;;;;;;;;;;7.80;99.90;;;;;;4974821;28;19926;-73
2024/01/18 12:16:06;;;;;;;;;;;7.80;99.90;;;;;;4974817;28;19973;-73
2024/01/18 12:18:38;;;;;;;;;;;7.80;99.90;;;;;;4974703;28;19926;-73
2024/01/18 12:21:05;;;;;;;;;;;7.90;99.90;;;;;;4974831;28;19926;-73
2024/01/18 12:23:32;;;;;;;;;;;7.90;99.90;;;;;;4974745;28;19953;-73
2024/01/18 12:25:58;;;;;;;;;;;7.90;99.90;;;;;;4974861;28;19993;-73
2024/01/18 12:28:25;;;;;;;;;;;7.80;99.90;;;;;;4975529;28;19926;-73
2024/01/18 12:31:01;;;;;;;;;;;7.90;99.90;;;;;;4978356;28;20349;-73
2024/01/18 12:33:28;;;;;;;;;;;7.80;99.90;;;;;;4978462;28;19933;-73
2024/01/18 12:35:54;;;;;;;;;;;7.80;99.90;;;;;;4978395;28;19934;-73
2024/01/18 12:38:21;;;;;;;;;;;7.70;99.90;;;;;;4978189;28;19925;-73
2024/01/18 12:40:47;;;;;;;;;;;7.70;99.90;;;;;;4978353;28;19926;-73
2024/01/18 12:43:14;;;;;;;;;;;7.60;99.90;;;;;;4978274;28;19926;-73
2024/01/18 12:45:42;;;;;;;;;;;7.40;99.90;;;;;;4978707;28;19926;-73
2024/01/18 12:48:10;;;;;;;;;;;7.10;99.90;;;;;;4980022;28;19930;-72
2024/01/18 12:50:37;;;;;;;;;;;6.80;99.90;;;;;;4980010;28;19926;-72
2024/01/18 12:53:03;;;;;;;;;;;6.40;99.90;;;;;;4980017;28;20287;-73
2024/01/18 12:55:30;;;;;;;;;;;6.10;99.90;;;;;;4980132;28;19930;-72
2024/01/18 12:57:58;;;;;;;;;;;5.90;99.90;;;;;;4980169;28;19926;-73
2024/01/18 13:00:24;;;;;;;;;;;5.70;99.90;;;;;;4981094;28;20025;-73
2024/01/18 13:02:52;;;;;;;;;;;5.50;99.90;;;;;;4981156;28;19926;-72
2024/01/18 13:05:20;;;;;;;;;;;5.40;99.90;;;;;;4981742;28;19977;-72
2024/01/18 13:07:46;;;;;;;;;;;5.30;99.90;;;;;;4980675;28;19934;-73
2024/01/18 13:10:13;;;;;;;;;;;5.20;99.90;;;;;;4979805;28;20352;-72
2024/01/18 13:12:40;;;;;;;;;;;5.20;99.90;;;;;;4980705;28;19926;-73
2024/01/18 13:15:07;;;;;;;;;;;5.10;99.90;;;;;;4978935;28;20293;-74
2024/01/18 13:17:33;;;;;;;;;;;5.10;99.90;;;;;;4977538;28;19926;-75
2024/01/18 13:20:00;;;;;;;;;;;5.00;99.90;;;;;;4977704;28;19977;-75
2024/01/18 13:22:28;;;;;;;;;;;4.90;99.90;;;;;;4977575;28;19933;-76
2024/01/18 13:24:54;;;;;;;;;;;4.90;99.90;;;;;;4977616;28;19930;-76
2024/01/18 13:27:21;;;;;;;;;;;4.90;99.90;;;;;;4977427;28;19933;-74
2024/01/18 13:29:47;;;;;;;;;;;4.90;99.90;;;;;;4977411;28;19926;-74
2024/01/18 13:32:14;;;;;;;;;;;4.80;99.90;;;;;;4977252;28;19934;-74
2024/01/18 13:34:40;;;;;;;;;;;4.80;99.90;;;;;;4977392;28;20295;-74
2024/01/18 13:37:07;;;;;;;;;;;4.70;99.90;;;;;;4977618;28;19973;-74
2024/01/18 13:39:35;;;;;;;;;;;4.70;99.90;;;;;;4976675;28;19934;-74
2024/01/18 13:42:01;;;;;;;;;;;4.70;99.90;;;;;;4977275;28;20002;-75
2024/01/18 13:44:28;;;;;;;;;;;4.70;99.90;;;;;;4977203;28;19933;-75
2024/01/18 13:46:55;;;;;;;;;;;4.70;99.90;;;;;;4977025;28;19926;-74
2024/01/18 13:49:21;;;;;;;;;;;4.60;99.90;;;;;;4977300;28;20312;-74
2024/01/18 13:51:48;;;;;;;;;;;4.60;99.90;;;;;;4977351;28;19957;-74
2024/01/18 13:54:14;;;;;;;;;;;4.40;99.90;;;;;;4977168;28;19933;-72
2024/01/18 13:56:43;;;;;;;;;;;4.20;99.90;;;;;;4976927;28;19929;-72
2024/01/18 13:59:09;;;;;;;;;;;4.10;99.90;;;;;;4976818;28;19933;-74
2024/01/18 14:01:36;;;;;;;;;;;3.90;99.90;;;;;;4976461;28;20333;-73
2024/01/18 14:04:02;;;;;;;;;;;3.70;99.90;;;;;;4976537;28;20419;-75
2024/01/18 14:06:29;;;;;;;;;;;3.40;99.90;;;;;;4977039;28;19972;-74
2024/01/18 14:08:57;;;;;;;;;;;3.20;99.90;;;;;;4976654;28;19926;-74
2024/01/18 14:11:24;;;;;;;;;;;3.00;99.90;;;;;;4977071;28;20033;-74
2024/01/18 14:13:52;;;;;;;;;;;2.90;99.90;;;;;;4976704;28;20343;-74
2024/01/18 14:16:19;;;;;;;;;;;2.70;99.90;;;;;;4978059;28;19926;-72
2024/01/18 14:18:46;;;;;;;;;;;2.60;99.90;;;;;;4978139;28;19926;-71
2024/01/18 14:21:13;;;;;;;;;;;2.50;99.90;;;;;;4977761;28;19981;-71
2024/01/18 14:23:40;;;;;;;;;;;2.50;99.90;;;;;;4977361;28;19933;-71
2024/01/18 14:26:07;;;;;;;;;;;2.40;99.90;;;;;;4977609;28;20033;-71
2024/01/18 14:28:34;;;;;;;;;;;2.30;99.90;;;;;;4977743;28;19930;-73
2024/01/18 14:31:04;;;;;;;;;;;2.20;99.90;;;;;;4977442;28;20253;-72
2024/01/18 14:33:31;;;;;;;;;;;2.00;99.90;;;;;;4978528;28;20036;-72
2024/01/18 14:35:58;;;;;;;;;;;2.00;99.90;;;;;;4977427;28;19930;-71
2024/01/18 14:38:25;;;;;;;;;;;1.90;99.90;;;;;;4976525;28;19926;-71
2024/01/18 14:40:51;;;;;;;;;;;1.70;99.90;;;;;;4977165;28;20017;-71
2024/01/18 14:43:18;;;;;;;;;;;1.70;99.90;;;;;;4977193;28;19926;-71
2024/01/18 14:45:45;;;;;;;;;;;1.60;99.90;;;;;;4977170;28;19972;-71
2024/01/18 14:48:14;;;;;;;;;;;1.50;99.90;;;;;;4977190;28;19932;-72
2024/01/18 14:50:41;;;;;;;;;;;1.40;99.90;;;;;;4976741;28;19925;-72
2024/01/18 14:53:08;;;;;;;;;;;1.30;99.90;;;;;;4975498;28;19957;-72
2024/01/18 14:55:35;;;;;;;;;;;1.20;99.90;;;;;;4976049;28;19934;-71
2024/01/18 14:58:05;;;;;;;;;;;1.10;99.90;;;;;;4975809;28;19926;-70
2024/01/18 15:00:34;;;;;;;;;;;1.10;99.90;;;;;;4975963;28;19979;-70
2024/01/18 15:03:01;;;;;;;;;;;1.00;99.90;;;;;;4976352;28;19926;-73
2024/01/18 15:05:29;;;;;;;;;;;1.00;99.90;;;;;;4975495;28;20336;-74
2024/01/18 15:07:55;;;;;;;;;;;0.90;99.90;;;;;;4975424;28;19942;-73
2024/01/18 15:10:22;;;;;;;;;;;0.90;99.90;;;;;;4976491;28;19933;-73
2024/01/18 15:12:48;;;;;;;;;;;0.80;99.90;;;;;;4975739;28;19926;-73
2024/01/18 15:15:16;;;;;;;;;;;0.80;99.90;;;;;;4975783;28;19933;-73
2024/01/18 15:17:45;;;;;;;;;;;0.90;99.90;;;;;;4975939;28;19926;-73
2024/01/18 15:20:12;;;;;;;;;;;0.80;99.90;;;;;;4976574;28;19972;-71
2024/01/18 15:22:39;;;;;;;;;;;0.80;99.90;;;;;;4975676;28;20431;-71
2024/01/18 15:25:08;;;;;;;;;;;0.80;99.90;;;;;;4975785;28;19977;-72
2024/01/18 15:27:35;;;;;;;;;;;0.80;99.90;;;;;;4975776;28;19985;-71
2024/01/18 15:30:01;;;;;;;;;;;0.70;99.90;;;;;;4975800;28;19926;-71
2024/01/18 15:32:28;;;;;;;;;;;0.70;99.90;;;;;;4975638;28;20016;-71
2024/01/18 15:34:54;;;;;;;;;;;0.70;99.90;;;;;;4976344;28;19926;-71
2024/01/18 15:37:21;;;;;;;;;;;0.70;99.90;;;;;;4975220;28;19993;-71
2024/01/18 15:39:49;;;;;;;;;;;0.60;99.90;;;;;;4975034;28;19926;-71
2024/01/18 15:42:16;;;;;;;;;;;0.60;99.90;;;;;;4975185;28;19949;-71
2024/01/18 15:44:42;;;;;;;;;;;0.50;99.90;;;;;;4975080;28;19933;-71
2024/01/18 15:47:13;;;;;;;;;;;0.40;99.90;;;;;;4974993;28;19929;-71
2024/01/18 15:49:40;;;;;;;;;;;0.40;99.90;;;;;;4975147;28;19926;-71
2024/01/18 15:52:06;;;;;;;;;;;0.40;99.90;;;;;;4975097;28;19926;-71
2024/01/18 15:54:33;;;;;;;;;;;0.40;99.90;;;;;;4974950;28;19933;-72
2024/01/18 15:57:01;;;;;;;;;;;0.30;99.90;;;;;;4974935;28;19933;-72
2024/01/18 15:59:28;;;;;;;;;;;0.30;99.90;;;;;;4975127;28;19926;-72
2024/01/18 16:01:54;;;;;;;;;;;0.30;99.90;;;;;;4975250;28;19937;-71
2024/01/18 16:04:21;;;;;;;;;;;0.30;99.90;;;;;;4979046;28;19933;-71
2024/01/18 16:06:47;;;;;;;;;;;0.30;99.90;;;;;;4981828;28;20383;-72
2024/01/18 16:09:15;;;;;;;;;;;0.20;99.90;;;;;;4980966;28;19930;-72
2024/01/18 16:11:41;;;;;;;;;;;0.20;99.90;;;;;;4980663;28;19926;-72
2024/01/18 16:14:09;;;;;;;;;;;0.20;99.90;;;;;;4980786;28;19926;-72
2024/01/18 16:16:36;;;;;;;;;;;0.10;99.90;;;;;;4981034;28;20410;-72
2024/01/18 16:19:03;;;;;;;;;;;0.10;99.90;;;;;;4980304;28;19926;-72
2024/01/18 16:21:29;;;;;;;;;;;0.10;99.90;;;;;;4980932;28;19980;-72
2024/01/18 16:23:57;;;;;;;;;;;0.10;99.90;;;;;;4980599;28;19930;-75
2024/01/18 16:26:24;;;;;;;;;;;0.10;99.90;;;;;;4980602;28;19937;-72
2024/01/18 16:28:50;;;;;;;;;;;0.20;99.90;;;;;;4980127;28;20407;-72
2024/01/18 16:31:18;;;;;;;;;;;0.00;99.90;;;;;;4979328;28;19926;-73
2024/01/18 16:33:45;;;;;;;;;;;0.00;99.90;;;;;;4979204;28;19926;-72
2024/01/18 16:36:12;;;;;;;;;;;-0.10;99.90;;;;;;4978772;28;19926;-73
2024/01/18 16:38:39;;;;;;;;;;;-0.20;99.90;;;;;;4978766;28;20380;-73
2024/01/18 16:41:07;;;;;;;;;;;-0.30;99.90;;;;;;4978718;28;19926;-72
2024/01/18 16:43:34;;;;;;;;;;;-0.40;99.90;;;;;;4978859;28;19982;-73
2024/01/18 16:46:01;;;;;;;;;;;-0.50;99.90;;;;;;4978397;28;19926;-73
2024/01/18 16:48:29;;;;;;;;;;;-0.50;99.90;;;;;;4977848;28;20371;-73
2024/01/18 16:50:56;;;;;;;;;;;-0.60;99.90;;;;;;4978162;28;19972;-73
2024/01/18 16:53:22;;;;;;;;;;;-0.70;99.90;;;;;;4978546;28;19926;-73
2024/01/18 16:55:49;;;;;;;;;;;-0.70;99.90;;;;;;4978170;28;19926;-73
2024/01/18 16:58:15;;;;;;;;;;;-0.70;99.90;;;;;;4977663;28;20399;-73
2024/01/18 17:00:42;;;;;;;;;;;-0.80;99.90;;;;;;4978383;28;20394;-73
2024/01/18 17:03:08;;;;;;;;;;;-0.80;99.90;;;;;;4977847;28;19926;-73
2024/01/18 17:05:36;;;;;;;;;;;-0.90;99.90;;;;;;4977932;28;19930;-73
2024/01/18 17:08:05;;;;;;;;;;;-0.90;99.90;;;;;;4978152;28;19926;-73
2024/01/18 17:10:32;;;;;;;;;;;-0.90;99.90;;;;;;4978193;28;20288;-73
2024/01/18 17:12:58;;;;;;;;;;;-1.00;99.90;;;;;;4977902;28;19926;-73
2024/01/18 17:15:25;;;;;;;;;;;-1.00;99.90;;;;;;4976861;28;19938;-74
2024/01/18 17:17:52;;;;;;;;;;;-1.00;99.90;;;;;;4978734;28;19933;-72
2024/01/18 17:20:18;;;;;;;;;;;-1.10;99.90;;;;;;4979101;28;19926;-72
2024/01/18 17:22:46;;;;;;;;;;;-1.10;99.90;;;;;;4978896;28;19930;-73
2024/01/18 17:25:13;;;;;;;;;;;-1.10;99.90;;;;;;4978582;28;19926;-73
2024/01/18 17:27:39;;;;;;;;;;;-1.20;99.90;;;;;;4978564;28;19926;-73
2024/01/18 17:30:06;;;;;;;;;;;-1.20;99.90;;;;;;4978590;28;19930;-72
2024/01/18 17:32:33;;;;;;;;;;;-1.20;99.90;;;;;;4979089;28;19933;-72
2024/01/18 17:34:59;;;;;;;;;;;-1.20;99.90;;;;;;4978622;28;19926;-72
2024/01/18 17:37:26;;;;;;;;;;;-1.20;99.90;;;;;;4978100;28;20002;-73
2024/01/18 17:39:54;;;;;;;;;;;-1.20;99.90;;;;;;4978179;28;19930;-72
2024/01/18 17:42:20;;;;;;;;;;;-1.30;99.90;;;;;;4978121;28;19926;-73
2024/01/18 17:44:47;;;;;;;;;;;-1.30;99.90;;;;;;4978357;28;19933;-73
2024/01/18 17:47:14;;;;;;;;;;;-1.30;99.90;;;;;;4978115;28;19942;-73
2024/01/18 17:49:41;;;;;;;;;;;-1.30;99.90;;;;;;4977983;28;19926;-73
2024/01/18 17:52:07;;;;;;;;;;;-1.30;99.90;;;;;;4977642;28;19926;-73
2024/01/18 17:54:34;;;;;;;;;;;-1.30;99.90;;;;;;4977653;28;19926;-73
2024/01/18 17:57:03;;;;;;;;;;;-1.30;99.90;;;;;;4978589;28;19926;-73
2024/01/18 17:59:29;;;;;;;;;;;-1.30;99.90;;;;;;4977858;28;19933;-73
2024/01/18 18:01:57;;;;;;;;;;;-1.30;99.90;;;;;;4977665;28;19938;-73
2024/01/18 18:04:23;;;;;;;;;;;-1.30;99.90;;;;;;4977030;28;19926;-72
2024/01/18 18:06:53;;;;;;;;;;;-1.40;99.90;;;;;;4976863;28;19934;-72
2024/01/18 18:09:20;;;;;;;;;;;-1.40;99.90;;;;;;4977011;28;20396;-73
2024/01/18 18:11:47;;;;;;;;;;;-1.40;99.90;;;;;;4977539;28;19933;-73
2024/01/18 18:14:14;;;;;;;;;;;-1.40;99.90;;;;;;4977560;28;19933;-72
2024/01/18 18:16:43;;;;;;;;;;;-1.40;99.90;;;;;;4978176;28;19932;-73
2024/01/18 18:19:09;;;;;;;;;;;-1.40;99.90;;;;;;4978375;28;19933;-73
2024/01/18 18:21:36;;;;;;;;;;;-1.40;99.90;;;;;;4979005;28;19954;-73
2024/01/18 18:24:02;;;;;;;;;;;-1.50;99.90;;;;;;4978360;28;19926;-73
2024/01/18 18:26:29;;;;;;;;;;;-1.40;99.90;;;;;;4977624;28;19926;-73
2024/01/18 18:28:55;;;;;;;;;;;-1.40;99.90;;;;;;4977891;28;19930;-73
2024/01/18 18:31:23;;;;;;;;;;;-1.40;99.90;;;;;;4978012;28;19928;-73
2024/01/18 18:33:50;;;;;;;;;;;-1.40;99.90;;;;;;4977851;28;19933;-73
2024/01/18 18:36:16;;;;;;;;;;;-1.40;99.90;;;;;;4978746;28;19938;-73
2024/01/18 18:38:43;;;;;;;;;;;-1.40;99.90;;;;;;4978284;28;20419;-72
2024/01/18 18:41:10;;;;;;;;;;;-1.40;99.90;;;;;;4978311;28;19933;-73
2024/01/18 18:43:39;;;;;;;;;;;-1.40;99.90;;;;;;4978332;28;19937;-73
2024/01/18 18:46:06;;;;;;;;;;;-1.30;99.90;;;;;;4978355;28;19981;-72
2024/01/18 18:48:35;;;;;;;;;;;-1.30;99.90;;;;;;4978008;28;19997;-73
2024/01/18 18:51:02;;;;;;;;;;;-1.30;99.90;;;;;;4976804;28;20347;-73
2024/01/18 18:53:28;;;;;;;;;;;-1.30;99.90;;;;;;4977562;28;20450;-72
2024/01/18 18:55:55;;;;;;;;;;;-1.40;99.90;;;;;;4977701;28;19926;-73
2024/01/18 18:58:21;;;;;;;;;;;-1.40;99.90;;;;;;4977442;28;19933;-74
2024/01/18 19:00:48;;;;;;;;;;;-1.50;99.90;;;;;;4977394;28;19938;-72
2024/01/18 19:03:15;;;;;;;;;;;-1.50;99.90;;;;;;4978091;28;19926;-72
2024/01/18 19:05:43;;;;;;;;;;;-1.50;99.90;;;;;;4977431;28;19933;-72
2024/01/18 19:08:10;;;;;;;;;;;-1.50;99.90;;;;;;4977454;28;19933;-73
2024/01/18 19:10:36;;;;;;;;;;;-1.50;99.90;;;;;;4977224;28;19930;-72
2024/01/18 19:13:04;;;;;;;;;;;-1.50;99.90;;;;;;4977468;28;19926;-73
2024/01/18 19:15:30;;;;;;;;;;;-1.60;99.90;;;;;;4977258;28;19989;-73
2024/01/18 19:17:57;;;;;;;;;;;-1.60;99.90;;;;;;4977449;28;19930;-72
2024/01/18 19:20:23;;;;;;;;;;;-1.60;99.90;;;;;;4977502;28;19926;-73
2024/01/18 19:22:51;;;;;;;;;;;-1.70;99.90;;;;;;4977261;28;19926;-73
2024/01/18 19:25:18;;;;;;;;;;;-1.70;99.90;;;;;;4977556;28;19933;-72
2024/01/18 19:27:44;;;;;;;;;;;-1.70;99.90;;;;;;4977583;28;19927;-73
2024/01/18 19:30:12;;;;;;;;;;;-1.70;99.90;;;;;;4977599;28;19933;-72
2024/01/18 19:32:39;;;;;;;;;;;-1.70;99.90;;;;;;4977038;28;19933;-72
2024/01/18 19:35:06;;;;;;;;;;;-1.70;99.90;;;;;;4977365;28;19926;-71
2024/01/18 19:37:33;;;;;;;;;;;-1.60;99.90;;;;;;4976897;28;19926;-73
2024/01/18 19:40:01;;;;;;;;;;;-1.60;99.90;;;;;;4976595;28;19933;-71
2024/01/18 19:42:27;;;;;;;;;;;-1.60;99.90;;;;;;4977009;28;19930;-72
2024/01/18 19:44:54;;;;;;;;;;;-1.60;99.90;;;;;;4976589;28;20316;-71
2024/01/18 19:47:20;;;;;;;;;;;-1.60;99.90;;;;;;4976194;28;20295;-72
2024/01/18 19:49:47;;;;;;;;;;;-1.60;99.90;;;;;;4976951;28;19992;-72
2024/01/18 19:53:37;;;;;;;;;;;-1.70;99.90;;;;;;5134213;27;19918;-74
2024/01/18 19:56:04;;;;;;;;;;;-1.50;99.90;;;;;;5134073;27;19923;-71
2024/01/18 19:58:31;;;;;;;;;;;-1.50;99.90;;;;;;5133736;28;20381;-72
2024/01/18 20:00:59;;;;;;;;;;;-1.50;99.90;;;;;;5133999;27;19927;-70
2024/01/18 20:03:25;;;;;;;;;;;-1.60;99.90;;;;;;5133114;27;19934;-74
2024/01/18 20:05:52;;;;;;;;;;;-1.40;99.90;;;;;;5133469;27;19931;-71
2024/01/18 20:08:19;;;;;;;;;;;-1.40;99.90;;;;;;5133308;27;19979;-70
2024/01/18 20:10:47;;;;;;;;;;;-1.40;99.90;;;;;;5133324;27;19924;-71
2024/01/18 20:13:13;;;;;;;;;;;-1.40;99.90;;;;;;5133110;27;19924;-71
2024/01/18 20:15:42;;;;;;;;;;;-1.40;99.90;;;;;;5132376;27;19924;-71
2024/01/18 20:18:10;;;;;;;;;;;-1.40;99.90;;;;;;5132013;27;19928;-72
2024/01/18 20:20:38;;;;;;;;;;;-1.50;99.90;;;;;;5132294;27;19924;-72
2024/01/18 20:23:04;;;;;;;;;;;-1.50;99.90;;;;;;5132079;27;19923;-73
2024/01/18 20:25:31;;;;;;;;;;;-1.50;99.90;;;;;;5132350;27;19923;-73
2024/01/18 20:27:59;;;;;;;;;;;-1.60;99.90;;;;;;5132483;27;19923;-73
2024/01/18 20:30:26;;;;;;;;;;;-1.60;99.90;;;;;;5132433;27;19923;-73
2024/01/18 20:32:53;;;;;;;;;;;-1.60;99.90;;;;;;5132120;27;19930;-72
2024/01/18 20:35:19;;;;;;;;;;;-1.60;99.90;;;;;;5132180;27;19930;-74
2024/01/18 20:37:46;;;;;;;;;;;-1.60;99.90;;;;;;5131971;27;19930;-74
2024/01/18 20:40:13;;;;;;;;;;;-1.60;99.90;;;;;;5132199;27;19924;-71
2024/01/18 20:42:40;;;;;;;;;;;-1.70;99.90;;;;;;5132033;27;19924;-73
2024/01/18 20:45:09;;;;;;;;;;;-1.70;99.90;;;;;;5131774;27;19923;-73
2024/01/18 20:47:35;;;;;;;;;;;-1.70;99.90;;;;;;5131750;27;19923;-70
2024/01/18 20:50:02;;;;;;;;;;;-1.70;99.90;;;;;;5131471;27;19924;-71
2024/01/18 20:52:28;;;;;;;;;;;-1.60;99.90;;;;;;5143211;27;20415;-71
2024/01/18 20:54:55;;;;;;;;;;;-1.50;99.90;;;;;;5151898;27;19923;-71
2024/01/18 20:57:21;;;;;;;;;;;-1.60;99.90;;;;;;5152136;27;19923;-71
2024/01/18 20:59:48;;;;;;;;;;;-1.60;99.90;;;;;;5152192;27;19927;-72
2024/01/18 21:02:16;;;;;;;;;;;-1.60;99.90;;;;;;5152242;27;19930;-72
2024/01/18 21:04:42;;;;;;;;;;;-1.60;99.90;;;;;;5140605;27;19923;-71
2024/01/18 21:07:09;;;;;;;;;;;-1.70;99.90;;;;;;5138249;27;20047;-72
2024/01/18 21:09:35;;;;;;;;;;;-1.70;99.90;;;;;;5137988;27;19923;-72
2024/01/18 21:12:03;;;;;;;;;;;-1.80;99.90;;;;;;5138003;27;19929;-71
2024/01/18 21:14:31;;;;;;;;;;;-1.80;99.90;;;;;;5137994;27;20300;-72
2024/01/18 21:16:59;;;;;;;;;;;-1.80;99.90;;;;;;5137751;27;19923;-72
2024/01/18 21:19:26;;;;;;;;;;;-1.80;99.90;;;;;;5138049;27;19980;-72
2024/01/18 21:21:53;;;;;;;;;;;-1.80;99.90;;;;;;5137565;27;19923;-73
2024/01/18 21:24:19;;;;;;;;;;;-1.80;99.90;;;;;;5137696;27;20398;-73
2024/01/18 21:26:46;;;;;;;;;;;-1.80;99.90;;;;;;5137877;27;19923;-72
2024/01/18 21:29:13;;;;;;;;;;;-1.90;99.90;;;;;;5137636;27;19946;-71
2024/01/18 21:31:39;;;;;;;;;;;-1.90;99.90;;;;;;5137468;27;19931;-72
2024/01/18 21:34:06;;;;;;;;;;;-1.90;99.90;;;;;;5137524;27;19924;-71
2024/01/18 21:36:36;;;;;;;;;;;-1.90;99.90;;;;;;5137056;27;20296;-72
2024/01/18 21:39:03;;;;;;;;;;;-1.90;99.90;;;;;;5137271;27;19924;-72
2024/01/18 21:41:30;;;;;;;;;;;-1.90;99.90;;;;;;5136858;27;19923;-71
2024/01/18 21:43:56;;;;;;;;;;;-2.00;99.90;;;;;;5137153;27;19923;-71
2024/01/18 21:46:23;;;;;;;;;;;-2.00;99.90;;;;;;5137218;27;20292;-71
2024/01/18 21:48:50;;;;;;;;;;;-2.00;99.90;;;;;;5136980;27;19968;-71
2024/01/18 21:51:16;;;;;;;;;;;-2.00;99.90;;;;;;5137080;27;19945;-72
2024/01/18 21:53:44;;;;;;;;;;;-2.00;99.90;;;;;;5137066;27;19924;-72
2024/01/18 21:56:10;;;;;;;;;;;-2.10;99.90;;;;;;5136718;27;20392;-71
2024/01/18 21:58:38;;;;;;;;;;;-2.10;99.90;;;;;;5136966;27;19930;-70
2024/01/18 22:01:05;;;;;;;;;;;-2.10;99.90;;;;;;5137026;27;19947;-71
2024/01/18 22:03:32;;;;;;;;;;;-2.00;99.90;;;;;;5136973;27;19949;-71
